Washington Navy Yard, District of Columbia
Current Conditions -  °F | °C
As of 8:52 PM on Wednesday 26 Nov 2014 (Local Time) from KDCA Reporting Station
Overcast Overcast  
Wind Chill: 33°   Ceiling: 900
Heat Index: 39°   Visibility: 10mi
Dew Point: 33°   Wind: 9mph
Humidity: 79%   Direction: 310°NW
Pressure: 29.99"   Gusts: NA
Location:  38.9163°N, 76.9946°W
Report Text: KDCA 270152Z 31008KT 10SM BKN009 OVC013 04/01 A2999 RMK AO2 SLP153 T00390006
Loading
Personal Weather Stations






























Interactive Weather Map New forecast layout! Learn more

10-Day Weather Forecast

Advertisements
Track Severe Weather on mobile